createdAt,value
2017-12-26T00:01:10.884Z,64.10
2017-12-26T00:03:44.479Z,64.20
2017-12-26T00:06:18.022Z,63.90
2017-12-26T00:08:51.604Z,64.00
2017-12-26T00:11:25.203Z,64.10
2017-12-26T00:13:58.995Z,64.00
2017-12-26T00:16:32.639Z,64.20
2017-12-26T00:19:07.677Z,63.60
2017-12-26T00:21:41.278Z,63.50
2017-12-26T00:24:14.880Z,64.00
2017-12-26T00:26:48.470Z,64.00
2017-12-26T00:29:21.991Z,64.10
2017-12-26T00:31:55.682Z,63.60
2017-12-26T00:34:29.363Z,63.80
2017-12-26T00:37:03.392Z,64.00
2017-12-26T00:39:37.431Z,64.20
2017-12-26T00:42:11.215Z,64.20
2017-12-26T00:44:45.496Z,64.30
2017-12-26T00:47:19.237Z,64.30
2017-12-26T00:49:52.833Z,64.10
2017-12-26T00:52:26.335Z,64.00
2017-12-26T00:55:00.020Z,64.00
2017-12-26T00:57:33.715Z,64.10
2017-12-26T01:00:08.116Z,65.00
2017-12-26T01:02:41.630Z,64.30
2017-12-26T01:05:15.252Z,64.40
2017-12-26T01:07:48.752Z,64.50
2017-12-26T01:10:22.562Z,64.50
2017-12-26T01:12:56.151Z,65.10
2017-12-26T01:15:29.876Z,64.60
2017-12-26T01:18:03.435Z,65.00
2017-12-26T01:20:37.169Z,64.60
2017-12-26T01:23:11.647Z,64.20
2017-12-26T01:25:45.296Z,64.40
2017-12-26T01:28:18.787Z,64.30
2017-12-26T01:30:52.402Z,64.50
2017-12-26T01:33:26.197Z,64.40
2017-12-26T01:36:00.631Z,64.40
2017-12-26T01:38:34.231Z,64.40
2017-12-26T01:41:07.816Z,64.20
2017-12-26T01:43:41.280Z,64.60
2017-12-26T01:46:23.719Z,64.60
2017-12-26T01:48:57.331Z,64.50
2017-12-26T01:51:31.129Z,64.40
2017-12-26T01:54:04.812Z,64.70
2017-12-26T01:56:39.319Z,65.30
2017-12-26T01:59:12.812Z,64.50
2017-12-26T02:01:47.480Z,64.60
2017-12-26T02:04:20.978Z,64.70
2017-12-26T02:06:54.667Z,64.30
2017-12-26T02:09:28.352Z,64.70
2017-12-26T02:12:02.187Z,65.10
2017-12-26T02:14:36.512Z,64.80
2017-12-26T02:17:10.648Z,64.80
2017-12-26T02:19:44.327Z,64.70
2017-12-26T02:22:17.924Z,64.80
2017-12-26T02:24:51.600Z,64.80
2017-12-26T02:27:25.072Z,65.10
2017-12-26T02:29:58.656Z,64.80
2017-12-26T02:32:32.167Z,64.50
2017-12-26T02:35:05.699Z,64.90
2017-12-26T02:37:39.280Z,64.80
2017-12-26T02:40:17.795Z,64.80
2017-12-26T02:42:51.348Z,64.70
2017-12-26T02:45:25.658Z,64.80
2017-12-26T02:47:59.151Z,64.80
2017-12-26T02:50:32.759Z,64.90
2017-12-26T02:53:06.318Z,64.70
2017-12-26T02:55:39.820Z,64.50
2017-12-26T02:58:13.416Z,64.50
2017-12-26T03:00:47.058Z,64.50
2017-12-26T03:03:21.459Z,64.90
2017-12-26T03:05:55.897Z,65.00
2017-12-26T03:08:29.495Z,64.80
2017-12-26T03:11:03.183Z,64.60
2017-12-26T03:13:37.003Z,64.70
2017-12-26T03:16:10.639Z,64.70
2017-12-26T03:18:45.448Z,64.40
2017-12-26T03:21:19.043Z,64.40
2017-12-26T03:23:52.555Z,64.40
2017-12-26T03:26:26.108Z,64.50
2017-12-26T03:28:59.627Z,64.30
2017-12-26T03:31:33.288Z,64.30
2017-12-26T03:34:06.941Z,64.10
2017-12-26T03:36:40.491Z,64.40
2017-12-26T03:39:14.040Z,64.20
2017-12-26T03:41:47.641Z,64.30
2017-12-26T03:44:21.679Z,64.00
2017-12-26T03:46:55.457Z,63.70
2017-12-26T03:49:29.878Z,63.70
2017-12-26T03:52:03.576Z,63.60
2017-12-26T03:54:37.135Z,63.60
2017-12-26T03:57:11.496Z,63.90
2017-12-26T03:59:45.203Z,63.90
2017-12-26T04:02:19.495Z,63.50
2017-12-26T04:04:53.120Z,64.10
2017-12-26T04:07:26.723Z,63.50
2017-12-26T04:10:00.275Z,63.30
2017-12-26T04:12:33.919Z,63.10
2017-12-26T04:15:08.203Z,63.00
2017-12-26T04:17:41.927Z,62.80
2017-12-26T04:20:15.645Z,62.80
2017-12-26T04:22:49.227Z,62.80
2017-12-26T04:25:22.851Z,63.10
2017-12-26T04:27:56.550Z,62.60
2017-12-26T04:30:30.107Z,62.50
2017-12-26T04:33:03.856Z,62.70
2017-12-26T04:35:37.463Z,62.80
2017-12-26T04:38:11.147Z,62.70
2017-12-26T04:40:44.767Z,62.50
2017-12-26T04:43:18.566Z,63.40
2017-12-26T04:45:53.112Z,62.40
2017-12-26T04:48:26.871Z,62.60
2017-12-26T04:51:00.598Z,62.20
2017-12-26T04:53:34.096Z,62.60
2017-12-26T04:56:08.476Z,62.50
2017-12-26T04:58:42.083Z,62.40
2017-12-26T05:01:15.718Z,62.40
2017-12-26T05:03:49.421Z,62.10
2017-12-26T05:06:22.967Z,62.40
2017-12-26T05:08:56.520Z,61.90
2017-12-26T05:11:29.987Z,62.10
2017-12-26T05:14:03.575Z,62.10
2017-12-26T05:16:37.327Z,61.90
2017-12-26T05:19:10.822Z,62.10
2017-12-26T05:21:44.275Z,62.10
2017-12-26T05:24:17.896Z,62.10
2017-12-26T05:26:51.540Z,62.20
2017-12-26T05:29:25.131Z,62.40
2017-12-26T05:31:59.039Z,62.00
2017-12-26T05:34:32.734Z,62.20
2017-12-26T05:37:06.437Z,62.00
2017-12-26T05:39:40.142Z,61.80
2017-12-26T05:42:13.741Z,62.00
2017-12-26T05:44:47.248Z,62.20
2017-12-26T05:47:21.839Z,62.30
2017-12-26T05:49:55.465Z,62.30
2017-12-26T05:52:29.066Z,62.20
2017-12-26T05:55:02.632Z,62.40
2017-12-26T05:57:36.368Z,62.10
2017-12-26T06:00:09.869Z,62.20
2017-12-26T06:02:43.572Z,62.10
2017-12-26T06:05:17.139Z,62.30
2017-12-26T06:07:50.635Z,62.30
2017-12-26T06:10:24.227Z,62.20
2017-12-26T06:12:57.940Z,62.20
2017-12-26T06:15:31.474Z,62.60
2017-12-26T06:18:05.271Z,62.70
2017-12-26T06:20:38.868Z,62.70
2017-12-26T06:23:12.575Z,62.50
2017-12-26T06:25:47.101Z,62.50
2017-12-26T06:28:20.810Z,62.50
2017-12-26T06:30:54.617Z,62.40
2017-12-26T06:33:28.216Z,62.50
2017-12-26T06:36:01.823Z,62.30
2017-12-26T06:38:35.376Z,62.50
2017-12-26T06:41:09.127Z,62.30
2017-12-26T06:43:42.823Z,62.50
2017-12-26T06:46:16.425Z,62.50
2017-12-26T06:48:49.920Z,62.20
2017-12-26T06:51:24.448Z,62.30
2017-12-26T06:53:58.039Z,62.30
2017-12-26T06:56:31.736Z,62.60
2017-12-26T06:59:06.254Z,62.20
2017-12-26T07:01:40.071Z,62.10
2017-12-26T07:04:13.681Z,62.20
2017-12-26T07:06:47.291Z,62.20
2017-12-26T07:09:21.085Z,62.30
2017-12-26T07:11:54.584Z,62.40
2017-12-26T07:14:28.271Z,62.20
2017-12-26T07:17:02.812Z,62.00
2017-12-26T07:19:42.339Z,61.90
2017-12-26T07:22:21.963Z,62.10
2017-12-26T07:24:56.310Z,62.00
2017-12-26T07:27:29.999Z,62.00
2017-12-26T07:30:03.719Z,62.00
2017-12-26T07:32:38.137Z,61.90
2017-12-26T07:35:11.734Z,61.90
2017-12-26T07:37:45.338Z,61.90
2017-12-26T07:40:18.837Z,62.30
2017-12-26T07:42:52.442Z,61.90
2017-12-26T07:45:26.248Z,61.90
2017-12-26T07:48:00.564Z,62.30
2017-12-26T07:50:34.152Z,62.30
2017-12-26T07:53:07.815Z,62.20
2017-12-26T07:55:41.351Z,61.90
2017-12-26T07:58:14.941Z,62.00
2017-12-26T08:00:48.568Z,62.30
2017-12-26T08:03:22.148Z,62.10
2017-12-26T08:05:55.835Z,61.90
2017-12-26T08:08:29.443Z,61.80
2017-12-26T08:11:02.965Z,62.00
2017-12-26T08:13:36.565Z,61.80
2017-12-26T08:16:10.273Z,62.10
2017-12-26T08:18:43.874Z,62.10
2017-12-26T08:21:17.671Z,62.90
2017-12-26T08:23:51.200Z,62.30
2017-12-26T08:26:24.895Z,62.30
2017-12-26T08:28:58.531Z,63.00
2017-12-26T08:31:32.295Z,62.90
2017-12-26T08:34:05.891Z,63.40
2017-12-26T08:36:40.192Z,62.70
2017-12-26T08:39:13.672Z,62.70
2017-12-26T08:41:47.179Z,63.70
2017-12-26T08:44:21.521Z,64.20
2017-12-26T08:46:55.019Z,64.20
2017-12-26T08:49:28.826Z,64.60
2017-12-26T08:52:03.127Z,65.40
2017-12-26T08:54:36.735Z,65.30
2017-12-26T08:57:10.241Z,65.60
2017-12-26T08:59:44.755Z,65.60
2017-12-26T09:02:18.312Z,65.60
2017-12-26T09:04:51.848Z,66.20
2017-12-26T09:07:25.310Z,66.00
2017-12-26T09:09:58.907Z,66.20
2017-12-26T09:12:32.351Z,66.10
2017-12-26T09:15:06.165Z,66.40
2017-12-26T09:17:39.659Z,67.00
2017-12-26T09:20:13.571Z,67.10
2017-12-26T09:22:47.275Z,66.90
2017-12-26T09:25:20.977Z,66.90
2017-12-26T09:27:54.688Z,67.40
2017-12-26T09:30:28.282Z,67.70
2017-12-26T09:33:02.783Z,68.30
2017-12-26T09:35:36.400Z,68.30
2017-12-26T09:38:10.011Z,68.10
2017-12-26T09:40:43.605Z,68.60
2017-12-26T09:43:17.171Z,68.50
2017-12-26T09:45:50.808Z,68.80
2017-12-26T09:48:25.126Z,68.20
2017-12-26T09:50:58.829Z,68.20
2017-12-26T09:53:32.429Z,68.60
2017-12-26T09:56:06.339Z,68.50
2017-12-26T09:58:40.040Z,69.00
2017-12-26T10:01:13.629Z,68.70
2017-12-26T10:03:47.119Z,68.50
2017-12-26T10:06:20.723Z,68.70
2017-12-26T10:08:54.445Z,68.50
2017-12-26T10:11:28.045Z,68.60
2017-12-26T10:14:02.362Z,68.60
2017-12-26T10:16:35.955Z,68.60
2017-12-26T10:19:09.528Z,68.60
2017-12-26T10:21:43.271Z,68.60
2017-12-26T10:24:16.927Z,69.10
2017-12-26T10:26:50.511Z,69.00
2017-12-26T10:29:24.377Z,69.20
2017-12-26T10:31:58.182Z,69.50
2017-12-26T10:34:32.600Z,69.40
2017-12-26T10:37:06.247Z,69.30
2017-12-26T10:39:39.848Z,69.50
2017-12-26T10:42:13.507Z,69.30
2017-12-26T10:44:47.828Z,69.70
2017-12-26T10:47:21.428Z,69.60
2017-12-26T10:49:55.031Z,69.70
2017-12-26T10:52:28.525Z,69.70
2017-12-26T10:55:02.126Z,69.40
2017-12-26T10:57:35.728Z,69.50
2017-12-26T11:00:09.222Z,69.50
2017-12-26T11:02:42.724Z,69.70
2017-12-26T11:05:16.326Z,69.90
2017-12-26T11:07:50.745Z,70.00
2017-12-26T11:10:24.348Z,69.90
2017-12-26T11:12:57.912Z,69.80
2017-12-26T11:15:32.435Z,70.20
2017-12-26T11:18:06.032Z,70.10
2017-12-26T11:20:39.556Z,70.20
2017-12-26T11:23:13.112Z,70.10
2017-12-26T11:25:46.668Z,70.20
2017-12-26T11:28:20.269Z,70.60
2017-12-26T11:30:53.847Z,71.30
2017-12-26T11:33:27.580Z,71.00
2017-12-26T11:36:01.277Z,71.30
2017-12-26T11:38:34.864Z,71.20
2017-12-26T11:41:09.504Z,72.10
2017-12-26T11:43:43.305Z,72.10
2017-12-26T11:46:16.864Z,72.00
2017-12-26T11:48:50.906Z,71.70
2017-12-26T11:51:24.627Z,72.00
2017-12-26T11:53:58.148Z,71.50
2017-12-26T11:56:31.724Z,71.50
2017-12-26T11:59:05.425Z,71.50
2017-12-26T12:01:39.152Z,71.90
2017-12-26T12:04:12.728Z,72.00
2017-12-26T12:06:46.222Z,71.60
2017-12-26T12:09:20.036Z,71.20
2017-12-26T12:11:53.611Z,71.10
2017-12-26T12:14:27.235Z,71.00
2017-12-26T12:17:01.524Z,70.50
2017-12-26T12:19:35.120Z,70.50
2017-12-26T12:22:08.960Z,70.80
2017-12-26T12:24:42.560Z,70.40
2017-12-26T12:27:16.162Z,70.60
2017-12-26T12:29:49.761Z,70.50
2017-12-26T12:32:23.471Z,71.30
2017-12-26T12:34:58.827Z,71.20
2017-12-26T12:37:33.203Z,71.70
2017-12-26T12:40:06.911Z,71.60
2017-12-26T12:42:40.739Z,71.40
2017-12-26T12:45:14.240Z,71.40
2017-12-26T12:47:47.835Z,71.70
2017-12-26T12:50:21.433Z,71.40
2017-12-26T12:52:54.999Z,72.00
2017-12-26T12:55:28.513Z,71.30
2017-12-26T12:58:02.852Z,71.50
2017-12-26T13:00:36.975Z,71.50
2017-12-26T13:03:10.539Z,71.50
2017-12-26T13:05:44.167Z,72.10
2017-12-26T13:08:18.075Z,72.40
2017-12-26T13:10:51.672Z,72.20
2017-12-26T13:13:25.220Z,71.80
2017-12-26T13:15:58.755Z,72.10
2017-12-26T13:18:32.460Z,71.50
2017-12-26T13:21:06.156Z,70.90
2017-12-26T13:23:40.807Z,70.90
2017-12-26T13:26:14.351Z,70.80
2017-12-26T13:28:48.788Z,71.50
2017-12-26T13:31:22.325Z,71.50
2017-12-26T13:33:55.828Z,71.50
2017-12-26T13:36:29.264Z,71.80
2017-12-26T13:39:02.820Z,72.20
2017-12-26T13:41:36.367Z,72.00
2017-12-26T13:44:10.850Z,71.40
2017-12-26T13:46:44.544Z,69.10
2017-12-26T13:49:18.244Z,68.00
2017-12-26T13:51:51.708Z,67.20
2017-12-26T13:54:25.207Z,67.80
2017-12-26T13:56:59.043Z,67.60
2017-12-26T13:59:32.604Z,66.30
2017-12-26T14:02:06.136Z,66.60
2017-12-26T14:04:39.743Z,65.70
2017-12-26T14:07:13.343Z,65.90
2017-12-26T14:09:46.903Z,66.70
2017-12-26T14:12:20.543Z,65.60
2017-12-26T14:14:54.156Z,66.10
2017-12-26T14:17:28.370Z,65.30
2017-12-26T14:20:02.007Z,65.70
2017-12-26T14:22:35.976Z,65.30
2017-12-26T14:25:09.708Z,64.90
2017-12-26T14:27:43.991Z,64.00
2017-12-26T14:30:17.500Z,64.00
2017-12-26T14:32:51.285Z,64.90
2017-12-26T14:35:24.756Z,64.80
2017-12-26T14:37:58.255Z,65.60
2017-12-26T14:40:31.840Z,65.90
2017-12-26T14:43:05.402Z,65.40
2017-12-26T14:45:38.935Z,65.50
2017-12-26T14:48:12.639Z,65.40
2017-12-26T14:50:46.298Z,65.00
2017-12-26T14:53:19.903Z,65.10
2017-12-26T14:55:53.504Z,64.70
2017-12-26T14:58:27.008Z,64.10
2017-12-26T15:01:00.710Z,64.10
2017-12-26T15:03:34.256Z,64.20
2017-12-26T15:06:07.903Z,64.00
2017-12-26T15:08:41.560Z,64.10
2017-12-26T15:11:15.004Z,63.10
2017-12-26T15:13:48.821Z,63.00
2017-12-26T15:16:22.559Z,62.50
2017-12-26T15:18:56.160Z,62.90
2017-12-26T15:21:29.926Z,63.50
2017-12-26T15:24:03.499Z,64.70
2017-12-26T15:26:36.995Z,65.00
2017-12-26T15:29:10.619Z,65.90
2017-12-26T15:31:44.203Z,64.60
2017-12-26T15:34:17.825Z,65.00
2017-12-26T15:36:51.478Z,64.60
2017-12-26T15:39:25.740Z,65.00
2017-12-26T15:41:59.223Z,65.00
2017-12-26T15:44:32.792Z,65.20
2017-12-26T15:47:06.341Z,64.80
2017-12-26T15:49:39.941Z,65.20
2017-12-26T15:52:13.850Z,65.00
2017-12-26T15:54:47.454Z,65.00
2017-12-26T15:57:20.992Z,65.30
2017-12-26T15:59:55.475Z,65.40
2017-12-26T16:02:29.117Z,65.40
2017-12-26T16:05:03.504Z,65.30
2017-12-26T16:07:37.302Z,65.30
2017-12-26T16:10:11.127Z,64.80
2017-12-26T16:12:44.803Z,65.20
2017-12-26T16:15:18.313Z,64.80
2017-12-26T16:17:52.015Z,64.70
2017-12-26T16:20:25.662Z,64.30
2017-12-26T16:22:59.788Z,64.50
2017-12-26T16:25:33.527Z,64.50
2017-12-26T16:28:07.087Z,64.60
2017-12-26T16:30:40.672Z,64.20
2017-12-26T16:33:14.251Z,64.20
2017-12-26T16:35:47.926Z,64.20
2017-12-26T16:38:21.536Z,64.00
2017-12-26T16:40:54.995Z,64.70
2017-12-26T16:43:28.500Z,64.30
2017-12-26T16:46:02.200Z,64.60
2017-12-26T16:48:35.833Z,64.20
2017-12-26T16:51:10.499Z,64.20
2017-12-26T16:53:44.068Z,64.20
2017-12-26T16:56:18.586Z,64.60
2017-12-26T16:58:52.080Z,64.60
2017-12-26T17:01:25.575Z,64.50
2017-12-26T17:03:59.415Z,64.20
2017-12-26T17:06:33.082Z,64.80
2017-12-26T17:09:07.512Z,64.20
2017-12-26T17:11:40.975Z,64.20
2017-12-26T17:14:15.203Z,64.80
2017-12-26T17:16:49.495Z,64.40
2017-12-26T17:19:23.238Z,64.40
2017-12-26T17:21:56.683Z,64.20
2017-12-26T17:24:31.026Z,65.20
2017-12-26T17:27:04.556Z,65.20
2017-12-26T17:29:38.164Z,64.60
2017-12-26T17:32:11.656Z,64.90
2017-12-26T17:34:45.459Z,64.70
2017-12-26T17:37:19.265Z,64.50
2017-12-26T17:39:52.851Z,64.70
2017-12-26T17:42:26.469Z,65.00
2017-12-26T17:45:00.069Z,64.60
2017-12-26T17:47:34.495Z,65.30
2017-12-26T17:50:08.291Z,65.30
2017-12-26T17:52:41.891Z,65.20
2017-12-26T17:55:15.396Z,65.60
2017-12-26T17:57:49.000Z,65.50
2017-12-26T18:00:22.591Z,65.40
2017-12-26T18:02:56.139Z,65.40
2017-12-26T18:05:29.667Z,65.40
2017-12-26T18:08:03.296Z,65.80
2017-12-26T18:10:36.796Z,65.40
2017-12-26T18:13:10.699Z,65.50
2017-12-26T18:15:44.632Z,65.30
2017-12-26T18:18:18.235Z,65.70
2017-12-26T18:20:51.980Z,65.80
2017-12-26T18:23:25.491Z,65.80
2017-12-26T18:26:00.036Z,65.40
2017-12-26T18:31:13.143Z,65.60
2017-12-26T18:33:46.666Z,65.80
2017-12-26T18:36:20.326Z,65.10
2017-12-26T18:38:54.015Z,65.70
2017-12-26T18:41:27.792Z,65.10
2017-12-26T18:44:01.495Z,65.70
2017-12-26T18:46:34.995Z,66.00
2017-12-26T18:49:08.782Z,66.40
2017-12-26T18:51:42.498Z,66.30
2017-12-26T18:54:16.071Z,66.30
2017-12-26T18:56:49.651Z,66.10
2017-12-26T18:59:23.194Z,66.30
2017-12-26T19:01:57.008Z,66.20
2017-12-26T19:04:30.811Z,66.00
2017-12-26T19:07:04.391Z,66.00
2017-12-26T19:09:38.090Z,66.10
2017-12-26T19:12:11.821Z,66.30
2017-12-26T19:14:45.419Z,66.70
2017-12-26T19:17:19.130Z,66.40
2017-12-26T19:19:52.771Z,66.60
2017-12-26T19:22:26.306Z,66.10
2017-12-26T19:24:59.806Z,66.60
2017-12-26T19:27:33.431Z,66.30
2017-12-26T19:30:07.122Z,65.80
2017-12-26T19:32:40.628Z,65.90
2017-12-26T19:35:14.187Z,66.00
2017-12-26T19:37:47.826Z,65.80
2017-12-26T19:40:21.510Z,65.90
2017-12-26T19:42:55.237Z,66.20
2017-12-26T19:45:28.838Z,65.90
2017-12-26T19:48:02.542Z,66.30
2017-12-26T19:50:36.031Z,65.40
2017-12-26T19:53:09.538Z,65.30
2017-12-26T19:55:43.136Z,64.50
2017-12-26T19:58:16.878Z,65.00
2017-12-26T20:00:50.444Z,64.80
2017-12-26T20:03:23.987Z,65.30
2017-12-26T20:05:57.747Z,65.40
2017-12-26T20:08:31.246Z,65.40
2017-12-26T20:11:04.846Z,65.30
2017-12-26T20:13:38.542Z,65.40
2017-12-26T20:16:12.223Z,65.40
2017-12-26T20:18:45.854Z,65.40
2017-12-26T20:21:19.407Z,65.70
2017-12-26T20:23:53.055Z,65.50
2017-12-26T20:26:26.759Z,65.50
2017-12-26T20:29:00.539Z,65.40
2017-12-26T20:31:34.362Z,65.60
2017-12-26T20:34:07.858Z,66.30
2017-12-26T20:36:41.478Z,65.60
2017-12-26T20:39:15.966Z,65.90
2017-12-26T20:41:49.591Z,65.90
2017-12-26T20:44:23.142Z,66.10
2017-12-26T20:46:56.638Z,66.20
2017-12-26T20:49:30.258Z,66.00
2017-12-26T20:52:03.866Z,66.20
2017-12-26T20:54:37.331Z,66.00
2017-12-26T20:57:10.855Z,65.90
2017-12-26T20:59:44.440Z,66.20
2017-12-26T21:02:17.858Z,66.40
2017-12-26T21:04:51.484Z,66.20
2017-12-26T21:07:25.076Z,66.50
2017-12-26T21:09:58.655Z,66.20
2017-12-26T21:12:32.284Z,66.50
2017-12-26T21:15:05.939Z,66.10
2017-12-26T21:17:39.679Z,66.10
2017-12-26T21:20:13.243Z,66.20
2017-12-26T21:22:46.774Z,66.50
2017-12-26T21:25:20.758Z,66.30
2017-12-26T21:27:54.475Z,66.40
2017-12-26T21:30:28.102Z,66.60
2017-12-26T21:33:01.703Z,66.70
2017-12-26T21:35:35.363Z,66.80
2017-12-26T21:38:08.962Z,66.90
2017-12-26T21:40:43.232Z,66.90
2017-12-26T21:43:16.725Z,66.80
2017-12-26T21:45:50.662Z,66.80
2017-12-26T21:48:24.340Z,66.50
2017-12-26T21:50:57.934Z,66.50
2017-12-26T21:53:31.579Z,66.80
2017-12-26T21:56:05.154Z,67.00
2017-12-26T21:58:39.635Z,67.00
2017-12-26T22:01:13.266Z,66.90
2017-12-26T22:03:46.842Z,66.60
2017-12-26T22:06:20.399Z,66.70
2017-12-26T22:08:53.922Z,66.50
2017-12-26T22:11:27.514Z,66.70
2017-12-26T22:14:00.940Z,66.50
2017-12-26T22:16:34.564Z,66.90
2017-12-26T22:19:08.723Z,66.00
2017-12-26T22:21:42.376Z,66.10
2017-12-26T22:24:15.934Z,65.90
2017-12-26T22:26:49.687Z,65.00
2017-12-26T22:29:24.284Z,64.70
2017-12-26T22:31:57.911Z,64.80
2017-12-26T22:34:31.410Z,65.30
2017-12-26T22:37:05.326Z,65.00
2017-12-26T22:39:39.011Z,64.70
2017-12-26T22:42:12.620Z,64.70
2017-12-26T22:44:46.139Z,64.00
2017-12-26T22:47:19.814Z,64.30
2017-12-26T22:49:53.423Z,64.90
2017-12-26T22:52:27.231Z,65.00
2017-12-26T22:55:00.940Z,64.80
2017-12-26T22:57:34.379Z,64.60
2017-12-26T23:00:08.032Z,64.70
2017-12-26T23:02:42.091Z,64.50
2017-12-26T23:05:16.658Z,64.00
2017-12-26T23:07:50.446Z,64.00
2017-12-26T23:10:24.159Z,63.80
2017-12-26T23:12:58.211Z,63.80
2017-12-26T23:15:37.542Z,63.50
2017-12-26T23:18:16.916Z,63.40
2017-12-26T23:20:56.894Z,62.10
2017-12-26T23:23:36.326Z,62.60
2017-12-26T23:26:15.731Z,63.20
2017-12-26T23:28:55.430Z,62.80
2017-12-26T23:31:35.611Z,62.10
2017-12-26T23:34:15.715Z,62.70
2017-12-26T23:36:54.991Z,62.70
2017-12-26T23:39:34.171Z,62.70
2017-12-26T23:42:13.394Z,62.70
2017-12-26T23:44:52.695Z,62.80
2017-12-26T23:47:32.054Z,63.00
2017-12-26T23:50:12.023Z,63.60
2017-12-26T23:52:52.147Z,62.90
2017-12-26T23:55:31.440Z,63.20
2017-12-26T23:58:10.847Z,63.10
